sensor_id;sensor_type;location;lat;lon;timestamp;pressure;altitude;pressure_sealevel;temperature;humidity
498;BME280;39559;48.630;9.162;2023-06-26T00:01:02;97438.59;;;14.50;100.00
498;BME280;39559;48.630;9.162;2023-06-26T00:03:28;97442.34;;;14.46;100.00
498;BME280;39559;48.630;9.162;2023-06-26T00:05:54;97440.78;;;14.28;100.00
498;BME280;39559;48.630;9.162;2023-06-26T00:08:20;97437.44;;;14.26;100.00
498;BME280;39559;48.630;9.162;2023-06-26T00:10:45;97435.75;;;14.25;100.00
498;BME280;39559;48.630;9.162;2023-06-26T00:15:09;97439.88;;;14.29;100.00
498;BME280;39559;48.630;9.162;2023-06-26T00:17:35;97445.94;;;14.29;100.00
498;BME280;39559;48.630;9.162;2023-06-26T00:20:03;97441.91;;;14.24;100.00
498;BME280;39559;48.630;9.162;2023-06-26T00:22:30;97448.06;;;14.23;100.00
498;BME280;39559;48.630;9.162;2023-06-26T00:24:56;97450.03;;;14.19;100.00
498;BME280;39559;48.630;9.162;2023-06-26T00:27:21;97449.53;;;14.12;100.00
498;BME280;39559;48.630;9.162;2023-06-26T00:29:47;97447.34;;;14.05;100.00
498;BME280;39559;48.630;9.162;2023-06-26T00:32:12;97453.28;;;13.92;100.00
498;BME280;39559;48.630;9.162;2023-06-26T00:34:38;97451.63;;;14.06;100.00
498;BME280;39559;48.630;9.162;2023-06-26T00:39:19;97452.00;;;13.99;100.00
498;BME280;39559;48.630;9.162;2023-06-26T00:41:45;97449.81;;;13.92;100.00
498;BME280;39559;48.630;9.162;2023-06-26T00:44:10;97446.72;;;13.85;100.00
498;BME280;39559;48.630;9.162;2023-06-26T00:46:36;97451.44;;;13.78;100.00
498;BME280;39559;48.630;9.162;2023-06-26T00:49:03;97449.47;;;13.82;100.00
498;BME280;39559;48.630;9.162;2023-06-26T00:51:32;97444.53;;;13.77;100.00
498;BME280;39559;48.630;9.162;2023-06-26T00:53:57;97449.59;;;13.65;100.00
498;BME280;39559;48.630;9.162;2023-06-26T00:56:23;97440.16;;;13.62;100.00
498;BME280;39559;48.630;9.162;2023-06-26T00:58:49;97444.19;;;13.68;100.00
498;BME280;39559;48.630;9.162;2023-06-26T01:03:03;97442.09;;;13.58;100.00
498;BME280;39559;48.630;9.162;2023-06-26T01:05:29;97440.59;;;13.70;100.00
498;BME280;39559;48.630;9.162;2023-06-26T01:08:02;97442.59;;;13.65;100.00
498;BME280;39559;48.630;9.162;2023-06-26T01:10:28;97441.34;;;13.56;100.00
498;BME280;39559;48.630;9.162;2023-06-26T01:12:54;97444.63;;;13.44;100.00
498;BME280;39559;48.630;9.162;2023-06-26T01:15:20;97439.91;;;13.51;100.00
498;BME280;39559;48.630;9.162;2023-06-26T01:17:45;97444.91;;;13.55;100.00
498;BME280;39559;48.630;9.162;2023-06-26T01:20:12;97434.69;;;13.51;100.00
498;BME280;39559;48.630;9.162;2023-06-26T01:27:00;97433.63;;;13.39;100.00
498;BME280;39559;48.630;9.162;2023-06-26T01:29:28;97434.25;;;13.27;100.00
498;BME280;39559;48.630;9.162;2023-06-26T01:31:55;97432.28;;;13.32;100.00
498;BME280;39559;48.630;9.162;2023-06-26T01:34:21;97426.63;;;13.39;100.00
498;BME280;39559;48.630;9.162;2023-06-26T01:36:47;97426.19;;;13.31;100.00
498;BME280;39559;48.630;9.162;2023-06-26T01:39:18;97423.59;;;13.31;100.00
498;BME280;39559;48.630;9.162;2023-06-26T01:41:44;97424.84;;;13.40;100.00
498;BME280;39559;48.630;9.162;2023-06-26T01:44:29;97415.13;;;13.26;100.00
498;BME280;39559;48.630;9.162;2023-06-26T01:47:00;97414.38;;;13.24;100.00
498;BME280;39559;48.630;9.162;2023-06-26T01:50:59;97420.38;;;13.10;100.00
498;BME280;39559;48.630;9.162;2023-06-26T01:53:32;97418.59;;;13.11;100.00
498;BME280;39559;48.630;9.162;2023-06-26T01:56:08;97419.91;;;13.02;100.00
498;BME280;39559;48.630;9.162;2023-06-26T01:58:41;97414.97;;;12.97;100.00
498;BME280;39559;48.630;9.162;2023-06-26T02:01:09;97419.09;;;13.01;100.00
498;BME280;39559;48.630;9.162;2023-06-26T02:03:34;97413.88;;;13.01;100.00
498;BME280;39559;48.630;9.162;2023-06-26T02:06:00;97418.75;;;13.07;100.00
498;BME280;39559;48.630;9.162;2023-06-26T02:08:25;97414.78;;;13.00;100.00
498;BME280;39559;48.630;9.162;2023-06-26T02:10:51;97414.97;;;12.97;100.00
498;BME280;39559;48.630;9.162;2023-06-26T02:14:55;97417.72;;;12.94;100.00
498;BME280;39559;48.630;9.162;2023-06-26T02:17:20;97421.91;;;12.81;100.00
498;BME280;39559;48.630;9.162;2023-06-26T02:19:46;97414.47;;;12.73;100.00
498;BME280;39559;48.630;9.162;2023-06-26T02:22:15;97414.94;;;12.81;100.00
498;BME280;39559;48.630;9.162;2023-06-26T02:24:41;97418.38;;;12.82;100.00
498;BME280;39559;48.630;9.162;2023-06-26T02:27:06;97419.63;;;12.75;100.00
498;BME280;39559;48.630;9.162;2023-06-26T02:29:32;97417.53;;;12.81;100.00
498;BME280;39559;48.630;9.162;2023-06-26T02:31:58;97419.34;;;12.63;100.00
498;BME280;39559;48.630;9.162;2023-06-26T02:34:35;97418.03;;;12.72;100.00
498;BME280;39559;48.630;9.162;2023-06-26T02:38:54;97428.25;;;12.59;100.00
498;BME280;39559;48.630;9.162;2023-06-26T02:41:21;97420.84;;;12.67;100.00
498;BME280;39559;48.630;9.162;2023-06-26T02:43:48;97425.16;;;12.68;100.00
498;BME280;39559;48.630;9.162;2023-06-26T02:46:14;97424.97;;;12.56;100.00
498;BME280;39559;48.630;9.162;2023-06-26T02:48:40;97421.50;;;12.55;100.00
498;BME280;39559;48.630;9.162;2023-06-26T02:51:12;97422.19;;;12.59;100.00
498;BME280;39559;48.630;9.162;2023-06-26T02:53:38;97416.47;;;12.52;100.00
498;BME280;39559;48.630;9.162;2023-06-26T02:58:30;97426.25;;;12.47;100.00
498;BME280;39559;48.630;9.162;2023-06-26T03:02:51;97423.72;;;12.45;100.00
498;BME280;39559;48.630;9.162;2023-06-26T03:05:16;97429.00;;;12.44;100.00
498;BME280;39559;48.630;9.162;2023-06-26T03:07:42;97424.06;;;12.39;100.00
498;BME280;39559;48.630;9.162;2023-06-26T03:10:08;97431.47;;;12.47;100.00
498;BME280;39559;48.630;9.162;2023-06-26T03:12:34;97423.97;;;12.41;100.00
498;BME280;39559;48.630;9.162;2023-06-26T03:15:00;97422.97;;;12.43;100.00
498;BME280;39559;48.630;9.162;2023-06-26T03:17:26;97422.59;;;12.34;100.00
498;BME280;39559;48.630;9.162;2023-06-26T03:19:51;97423.66;;;12.29;100.00
498;BME280;39559;48.630;9.162;2023-06-26T03:22:17;97419.38;;;12.28;100.00
498;BME280;39559;48.630;9.162;2023-06-26T03:26:47;97422.22;;;12.24;100.00
498;BME280;39559;48.630;9.162;2023-06-26T03:29:13;97417.88;;;12.24;100.00
498;BME280;39559;48.630;9.162;2023-06-26T03:31:39;97432.13;;;12.17;100.00
498;BME280;39559;48.630;9.162;2023-06-26T03:34:05;97431.25;;;12.17;100.00
498;BME280;39559;48.630;9.162;2023-06-26T03:36:30;97428.66;;;12.17;100.00
498;BME280;39559;48.630;9.162;2023-06-26T03:38:56;97423.28;;;12.20;100.00
498;BME280;39559;48.630;9.162;2023-06-26T03:41:23;97419.09;;;12.17;100.00
498;BME280;39559;48.630;9.162;2023-06-26T03:43:49;97426.34;;;12.10;100.00
498;BME280;39559;48.630;9.162;2023-06-26T03:46:15;97423.81;;;12.09;100.00
498;BME280;39559;48.630;9.162;2023-06-26T03:50:45;97426.34;;;12.10;100.00
498;BME280;39559;48.630;9.162;2023-06-26T03:53:11;97424.66;;;12.09;100.00
498;BME280;39559;48.630;9.162;2023-06-26T03:55:37;97428.88;;;12.12;100.00
498;BME280;39559;48.630;9.162;2023-06-26T03:58:04;97433.47;;;12.07;100.00
498;BME280;39559;48.630;9.162;2023-06-26T04:00:30;97434.31;;;12.07;100.00
498;BME280;39559;48.630;9.162;2023-06-26T04:02:56;97428.06;;;12.12;100.00
498;BME280;39559;48.630;9.162;2023-06-26T04:05:23;97428.75;;;12.15;100.00
498;BME280;39559;48.630;9.162;2023-06-26T04:07:52;97436.25;;;12.21;100.00
498;BME280;39559;48.630;9.162;2023-06-26T04:10:18;97433.78;;;12.18;100.00
498;BME280;39559;48.630;9.162;2023-06-26T04:14:43;97437.16;;;12.20;100.00
498;BME280;39559;48.630;9.162;2023-06-26T04:17:09;97430.28;;;12.19;100.00
498;BME280;39559;48.630;9.162;2023-06-26T04:19:35;97435.75;;;12.13;100.00
498;BME280;39559;48.630;9.162;2023-06-26T04:22:02;97434.84;;;12.14;100.00
498;BME280;39559;48.630;9.162;2023-06-26T04:24:28;97432.56;;;12.08;100.00
498;BME280;39559;48.630;9.162;2023-06-26T04:26:54;97431.25;;;12.17;100.00
498;BME280;39559;48.630;9.162;2023-06-26T04:29:26;97433.94;;;12.15;100.00
498;BME280;39559;48.630;9.162;2023-06-26T04:31:54;97444.06;;;12.21;100.00
498;BME280;39559;48.630;9.162;2023-06-26T04:34:26;97439.47;;;12.26;100.00
498;BME280;39559;48.630;9.162;2023-06-26T04:38:43;97437.38;;;12.33;100.00
498;BME280;39559;48.630;9.162;2023-06-26T04:41:09;97436.53;;;12.33;100.00
498;BME280;39559;48.630;9.162;2023-06-26T04:43:36;97438.75;;;12.40;100.00
498;BME280;39559;48.630;9.162;2023-06-26T04:46:03;97432.31;;;12.47;100.00
498;BME280;39559;48.630;9.162;2023-06-26T04:48:29;97431.31;;;12.50;100.00
498;BME280;39559;48.630;9.162;2023-06-26T04:50:56;97430.25;;;12.54;100.00
498;BME280;39559;48.630;9.162;2023-06-26T04:53:23;97432.78;;;12.56;100.00
498;BME280;39559;48.630;9.162;2023-06-26T04:55:49;97433.72;;;12.71;100.00
498;BME280;39559;48.630;9.162;2023-06-26T04:58:15;97420.03;;;12.67;100.00
498;BME280;39559;48.630;9.162;2023-06-26T05:02:39;97425.50;;;12.78;100.00
498;BME280;39559;48.630;9.162;2023-06-26T05:05:05;97419.88;;;12.86;100.00
498;BME280;39559;48.630;9.162;2023-06-26T05:07:30;97423.03;;;12.93;100.00
498;BME280;39559;48.630;9.162;2023-06-26T05:09:56;97419.84;;;13.03;100.00
498;BME280;39559;48.630;9.162;2023-06-26T05:12:21;97423.47;;;13.17;100.00
498;BME280;39559;48.630;9.162;2023-06-26T05:14:47;97415.31;;;13.23;100.00
498;BME280;39559;48.630;9.162;2023-06-26T05:17:16;97412.91;;;13.36;100.00
498;BME280;39559;48.630;9.162;2023-06-26T05:19:42;97416.44;;;13.51;100.00
498;BME280;39559;48.630;9.162;2023-06-26T05:22:09;97417.63;;;13.61;100.00
498;BME280;39559;48.630;9.162;2023-06-26T05:26:39;97421.13;;;13.76;100.00
498;BME280;39559;48.630;9.162;2023-06-26T05:29:04;97413.69;;;13.84;100.00
498;BME280;39559;48.630;9.162;2023-06-26T05:31:40;97420.75;;;13.98;100.00
498;BME280;39559;48.630;9.162;2023-06-26T05:34:07;97420.88;;;14.11;100.00
498;BME280;39559;48.630;9.162;2023-06-26T05:36:34;97418.47;;;14.22;100.00
498;BME280;39559;48.630;9.162;2023-06-26T05:39:01;97422.91;;;14.36;100.00
498;BME280;39559;48.630;9.162;2023-06-26T05:41:28;97419.75;;;14.45;100.00
498;BME280;39559;48.630;9.162;2023-06-26T05:43:53;97431.16;;;14.58;100.00
498;BME280;39559;48.630;9.162;2023-06-26T05:46:20;97424.00;;;14.76;100.00
498;BME280;39559;48.630;9.162;2023-06-26T05:50:34;97413.06;;;14.98;100.00
498;BME280;39559;48.630;9.162;2023-06-26T05:53:01;97422.38;;;15.17;100.00
498;BME280;39559;48.630;9.162;2023-06-26T05:55:28;97411.63;;;15.36;100.00
498;BME280;39559;48.630;9.162;2023-06-26T05:57:55;97419.13;;;15.55;100.00
498;BME280;39559;48.630;9.162;2023-06-26T06:00:23;97415.34;;;15.73;100.00
498;BME280;39559;48.630;9.162;2023-06-26T06:02:50;97418.72;;;16.03;100.00
498;BME280;39559;48.630;9.162;2023-06-26T06:05:20;97415.53;;;16.25;100.00
498;BME280;39559;48.630;9.162;2023-06-26T06:07:47;97406.31;;;16.45;100.00
498;BME280;39559;48.630;9.162;2023-06-26T06:10:13;97402.63;;;16.60;100.00
498;BME280;39559;48.630;9.162;2023-06-26T06:14:32;97407.59;;;16.91;100.00
498;BME280;39559;48.630;9.162;2023-06-26T06:16:58;97407.38;;;17.06;100.00
498;BME280;39559;48.630;9.162;2023-06-26T06:19:24;97406.03;;;17.38;100.00
498;BME280;39559;48.630;9.162;2023-06-26T06:21:49;97405.63;;;17.92;100.00
498;BME280;39559;48.630;9.162;2023-06-26T06:24:16;97406.50;;;18.51;100.00
498;BME280;39559;48.630;9.162;2023-06-26T06:26:42;97407.78;;;19.03;100.00
498;BME280;39559;48.630;9.162;2023-06-26T06:29:17;97405.78;;;19.62;100.00
498;BME280;39559;48.630;9.162;2023-06-26T06:31:45;97397.81;;;20.17;95.04
498;BME280;39559;48.630;9.162;2023-06-26T06:34:10;97397.50;;;20.52;95.25
498;BME280;39559;48.630;9.162;2023-06-26T06:38:29;97404.03;;;21.09;86.93
498;BME280;39559;48.630;9.162;2023-06-26T06:40:54;97402.72;;;21.25;85.55
498;BME280;39559;48.630;9.162;2023-06-26T06:43:21;97399.28;;;21.44;82.43
498;BME280;39559;48.630;9.162;2023-06-26T06:45:48;97394.91;;;21.64;77.91
498;BME280;39559;48.630;9.162;2023-06-26T06:48:14;97408.00;;;21.75;82.50
498;BME280;39559;48.630;9.162;2023-06-26T06:50:40;97404.94;;;21.90;76.74
498;BME280;39559;48.630;9.162;2023-06-26T06:53:07;97399.38;;;22.02;74.75
498;BME280;39559;48.630;9.162;2023-06-26T06:55:41;97400.50;;;22.19;73.86
498;BME280;39559;48.630;9.162;2023-06-26T06:58:07;97397.16;;;22.37;75.88
498;BME280;39559;48.630;9.162;2023-06-26T07:02:30;97405.88;;;22.67;70.92
498;BME280;39559;48.630;9.162;2023-06-26T07:04:55;97397.75;;;22.78;71.23
498;BME280;39559;48.630;9.162;2023-06-26T07:07:21;97401.19;;;22.98;70.01
498;BME280;39559;48.630;9.162;2023-06-26T07:09:47;97397.53;;;22.99;70.38
498;BME280;39559;48.630;9.162;2023-06-26T07:12:12;97401.97;;;23.18;68.99
498;BME280;39559;48.630;9.162;2023-06-26T07:14:39;97399.41;;;23.26;65.70
498;BME280;39559;48.630;9.162;2023-06-26T07:17:04;97394.59;;;23.40;66.85
498;BME280;39559;48.630;9.162;2023-06-26T07:19:30;97399.22;;;23.55;65.85
498;BME280;39559;48.630;9.162;2023-06-26T07:21:55;97399.41;;;23.72;63.24
498;BME280;39559;48.630;9.162;2023-06-26T07:26:22;97395.44;;;24.22;61.00
498;BME280;39559;48.630;9.162;2023-06-26T07:28:48;97403.19;;;24.41;59.84
498;BME280;39559;48.630;9.162;2023-06-26T07:31:14;97400.47;;;24.33;60.53
498;BME280;39559;48.630;9.162;2023-06-26T07:33:42;97404.56;;;24.45;60.30
498;BME280;39559;48.630;9.162;2023-06-26T07:36:07;97400.84;;;24.56;60.93
498;BME280;39559;48.630;9.162;2023-06-26T07:38:33;97401.38;;;24.60;60.16
498;BME280;39559;48.630;9.162;2023-06-26T07:40:59;97405.34;;;24.90;58.49
498;BME280;39559;48.630;9.162;2023-06-26T07:43:25;97404.25;;;25.27;59.03
498;BME280;39559;48.630;9.162;2023-06-26T07:45:51;97406.56;;;25.30;57.62
498;BME280;39559;48.630;9.162;2023-06-26T07:50:19;97417.25;;;25.46;55.26
498;BME280;39559;48.630;9.162;2023-06-26T07:52:48;97417.16;;;25.56;53.58
498;BME280;39559;48.630;9.162;2023-06-26T07:55:13;97412.03;;;25.71;54.35
498;BME280;39559;48.630;9.162;2023-06-26T07:57:39;97399.06;;;25.84;53.74
498;BME280;39559;48.630;9.162;2023-06-26T08:00:05;97404.56;;;25.83;53.04
498;BME280;39559;48.630;9.162;2023-06-26T08:02:32;97412.78;;;25.98;53.13
498;BME280;39559;48.630;9.162;2023-06-26T08:04:57;97410.28;;;26.04;52.98
498;BME280;39559;48.630;9.162;2023-06-26T08:07:23;97408.97;;;26.17;51.83
498;BME280;39559;48.630;9.162;2023-06-26T08:09:49;97405.47;;;26.16;51.82
498;BME280;39559;48.630;9.162;2023-06-26T08:14:15;97392.00;;;26.26;51.78
498;BME280;39559;48.630;9.162;2023-06-26T08:16:43;97394.66;;;26.34;53.25
498;BME280;39559;48.630;9.162;2023-06-26T08:19:13;97389.31;;;26.42;51.00
498;BME280;39559;48.630;9.162;2023-06-26T08:21:40;97393.63;;;26.52;53.22
498;BME280;39559;48.630;9.162;2023-06-26T08:24:06;97385.75;;;26.91;51.38
498;BME280;39559;48.630;9.162;2023-06-26T08:26:32;97382.50;;;27.20;50.69
498;BME280;39559;48.630;9.162;2023-06-26T08:28:57;97382.09;;;27.40;49.62
498;BME280;39559;48.630;9.162;2023-06-26T08:31:23;97374.69;;;27.50;48.64
498;BME280;39559;48.630;9.162;2023-06-26T08:33:49;97376.84;;;27.55;49.99
498;BME280;39559;48.630;9.162;2023-06-26T08:38:10;97373.63;;;27.60;48.05
498;BME280;39559;48.630;9.162;2023-06-26T08:40:36;97378.06;;;27.75;50.59
498;BME280;39559;48.630;9.162;2023-06-26T08:43:02;97380.41;;;28.02;48.99
498;BME280;39559;48.630;9.162;2023-06-26T08:45:28;97379.00;;;27.91;48.72
498;BME280;39559;48.630;9.162;2023-06-26T08:47:55;97374.34;;;28.08;48.62
498;BME280;39559;48.630;9.162;2023-06-26T08:50:28;97384.72;;;28.03;47.94
498;BME280;39559;48.630;9.162;2023-06-26T08:53:04;97369.41;;;28.20;47.18
498;BME280;39559;48.630;9.162;2023-06-26T08:55:38;97372.59;;;28.38;47.77
498;BME280;39559;48.630;9.162;2023-06-26T08:58:06;97376.63;;;28.57;47.90
498;BME280;39559;48.630;9.162;2023-06-26T09:02:06;97373.53;;;28.45;46.97
498;BME280;39559;48.630;9.162;2023-06-26T09:04:48;97366.88;;;28.41;45.35
498;BME280;39559;48.630;9.162;2023-06-26T09:07:17;97368.78;;;28.56;45.70
498;BME280;39559;48.630;9.162;2023-06-26T09:09:49;97369.88;;;28.61;45.53
498;BME280;39559;48.630;9.162;2023-06-26T09:12:16;97369.81;;;28.69;45.43
498;BME280;39559;48.630;9.162;2023-06-26T09:14:43;97363.94;;;28.89;46.08
498;BME280;39559;48.630;9.162;2023-06-26T09:17:10;97369.53;;;28.79;44.17
498;BME280;39559;48.630;9.162;2023-06-26T09:19:37;97368.72;;;29.23;43.63
498;BME280;39559;48.630;9.162;2023-06-26T09:22:05;97365.53;;;29.50;43.43
498;BME280;39559;48.630;9.162;2023-06-26T09:26:02;97363.28;;;29.32;44.06
498;BME280;39559;48.630;9.162;2023-06-26T09:28:35;97365.44;;;29.43;42.85
498;BME280;39559;48.630;9.162;2023-06-26T09:31:03;97363.31;;;29.53;41.54
498;BME280;39559;48.630;9.162;2023-06-26T09:33:37;97352.28;;;29.63;42.72
498;BME280;39559;48.630;9.162;2023-06-26T09:36:07;97351.44;;;29.77;41.42
498;BME280;39559;48.630;9.162;2023-06-26T09:38:35;97356.88;;;29.84;41.91
498;BME280;39559;48.630;9.162;2023-06-26T09:41:02;97357.78;;;29.91;42.14
498;BME280;39559;48.630;9.162;2023-06-26T09:43:28;97351.06;;;29.80;41.05
498;BME280;39559;48.630;9.162;2023-06-26T09:45:54;97355.41;;;29.66;41.09
498;BME280;39559;48.630;9.162;2023-06-26T09:49:54;97359.59;;;29.54;41.97
498;BME280;39559;48.630;9.162;2023-06-26T09:52:21;97356.91;;;29.69;41.47
498;BME280;39559;48.630;9.162;2023-06-26T09:55:07;97350.56;;;29.92;40.34
498;BME280;39559;48.630;9.162;2023-06-26T09:57:35;97339.94;;;30.27;40.01
498;BME280;39559;48.630;9.162;2023-06-26T10:00:02;97343.84;;;30.24;39.58
498;BME280;39559;48.630;9.162;2023-06-26T10:02:30;97340.38;;;30.02;39.46
498;BME280;39559;48.630;9.162;2023-06-26T10:04:56;97351.34;;;30.07;39.39
498;BME280;39559;48.630;9.162;2023-06-26T10:07:22;97338.56;;;30.09;37.65
498;BME280;39559;48.630;9.162;2023-06-26T10:09:55;97331.97;;;30.33;39.21
498;BME280;39559;48.630;9.162;2023-06-26T10:13:50;97339.13;;;30.54;39.47
498;BME280;39559;48.630;9.162;2023-06-26T10:16:26;97336.56;;;30.68;38.06
498;BME280;39559;48.630;9.162;2023-06-26T10:19:01;97347.47;;;30.66;36.41
498;BME280;39559;48.630;9.162;2023-06-26T10:21:29;97338.03;;;30.77;36.77
498;BME280;39559;48.630;9.162;2023-06-26T10:23:56;97335.41;;;30.84;36.42
498;BME280;39559;48.630;9.162;2023-06-26T10:26:24;97341.34;;;31.14;36.46
498;BME280;39559;48.630;9.162;2023-06-26T10:28:51;97343.47;;;30.90;35.78
498;BME280;39559;48.630;9.162;2023-06-26T10:31:21;97338.44;;;31.09;35.98
498;BME280;39559;48.630;9.162;2023-06-26T10:33:49;97344.41;;;31.04;36.43
498;BME280;39559;48.630;9.162;2023-06-26T10:37:46;97339.97;;;30.05;37.71
498;BME280;39559;48.630;9.162;2023-06-26T10:40:13;97354.66;;;29.51;38.44
498;BME280;39559;48.630;9.162;2023-06-26T10:42:40;97354.06;;;29.19;39.33
498;BME280;39559;48.630;9.162;2023-06-26T10:45:16;97356.19;;;29.24;40.31
498;BME280;39559;48.630;9.162;2023-06-26T10:47:46;97363.19;;;29.25;39.07
498;BME280;39559;48.630;9.162;2023-06-26T10:50:31;97370.00;;;29.13;39.36
498;BME280;39559;48.630;9.162;2023-06-26T10:53:12;97372.69;;;29.13;39.73
498;BME280;39559;48.630;9.162;2023-06-26T10:55:49;97369.09;;;29.05;39.60
498;BME280;39559;48.630;9.162;2023-06-26T11:01:40;97374.06;;;29.23;41.97
498;BME280;39559;48.630;9.162;2023-06-26T11:04:07;97369.81;;;29.80;43.47
498;BME280;39559;48.630;9.162;2023-06-26T11:06:35;97363.91;;;29.70;43.19
498;BME280;39559;48.630;9.162;2023-06-26T11:14:18;97381.03;;;29.39;44.20
498;BME280;39559;48.630;9.162;2023-06-26T11:16:44;97384.13;;;29.36;43.90
498;BME280;39559;48.630;9.162;2023-06-26T11:19:10;97380.28;;;29.60;42.60
498;BME280;39559;48.630;9.162;2023-06-26T11:21:40;97379.28;;;29.46;42.48
498;BME280;39559;48.630;9.162;2023-06-26T11:25:54;97383.00;;;29.31;43.87
498;BME280;39559;48.630;9.162;2023-06-26T11:28:21;97388.44;;;29.07;43.32
498;BME280;39559;48.630;9.162;2023-06-26T11:30:47;97383.22;;;29.29;44.68
498;BME280;39559;48.630;9.162;2023-06-26T11:33:12;97392.66;;;29.46;45.61
498;BME280;39559;48.630;9.162;2023-06-26T11:35:38;97394.78;;;29.51;45.13
498;BME280;39559;48.630;9.162;2023-06-26T11:38:07;97394.47;;;29.61;43.79
498;BME280;39559;48.630;9.162;2023-06-26T11:40:35;97391.13;;;29.74;44.05
498;BME280;39559;48.630;9.162;2023-06-26T11:43:04;97396.53;;;29.95;42.14
498;BME280;39559;48.630;9.162;2023-06-26T11:45:39;97393.53;;;29.83;42.60
498;BME280;39559;48.630;9.162;2023-06-26T11:49:24;97398.03;;;29.83;42.24
498;BME280;39559;48.630;9.162;2023-06-26T11:51:52;97397.59;;;29.64;41.85
498;BME280;39559;48.630;9.162;2023-06-26T11:54:27;97395.56;;;29.30;41.76
498;BME280;39559;48.630;9.162;2023-06-26T11:56:58;97395.91;;;29.27;43.02
498;BME280;39559;48.630;9.162;2023-06-26T11:59:31;97403.59;;;29.15;43.98
498;BME280;39559;48.630;9.162;2023-06-26T12:01:57;97394.75;;;29.15;43.70
498;BME280;39559;48.630;9.162;2023-06-26T12:04:24;97405.44;;;29.29;43.95
498;BME280;39559;48.630;9.162;2023-06-26T12:07:21;97405.59;;;29.28;44.62
498;BME280;39559;48.630;9.162;2023-06-26T12:09:49;97408.63;;;29.55;44.43
498;BME280;39559;48.630;9.162;2023-06-26T12:13:16;97405.25;;;29.31;44.32
498;BME280;39559;48.630;9.162;2023-06-26T12:15:42;97412.13;;;29.10;43.14
498;BME280;39559;48.630;9.162;2023-06-26T12:18:09;97407.94;;;29.16;43.91
498;BME280;39559;48.630;9.162;2023-06-26T12:20:41;97412.22;;;29.47;44.66
498;BME280;39559;48.630;9.162;2023-06-26T12:23:13;97404.56;;;29.95;44.49
498;BME280;39559;48.630;9.162;2023-06-26T12:25:39;97409.53;;;29.98;43.66
498;BME280;39559;48.630;9.162;2023-06-26T12:28:17;97404.44;;;30.03;44.86
498;BME280;39559;48.630;9.162;2023-06-26T12:31:15;97410.75;;;30.17;45.59
498;BME280;39559;48.630;9.162;2023-06-26T12:33:45;97407.06;;;30.40;43.84
498;BME280;39559;48.630;9.162;2023-06-26T12:37:10;97389.75;;;30.71;43.50
498;BME280;39559;48.630;9.162;2023-06-26T12:39:55;97391.06;;;30.81;44.18
498;BME280;39559;48.630;9.162;2023-06-26T12:42:25;97392.56;;;31.19;43.73
498;BME280;39559;48.630;9.162;2023-06-26T12:44:52;97400.50;;;31.41;43.12
498;BME280;39559;48.630;9.162;2023-06-26T12:47:37;97399.91;;;31.04;41.77
498;BME280;39559;48.630;9.162;2023-06-26T12:50:07;97395.41;;;31.11;43.91
498;BME280;39559;48.630;9.162;2023-06-26T12:52:33;97396.56;;;31.02;42.91
498;BME280;39559;48.630;9.162;2023-06-26T12:54:59;97390.25;;;31.16;42.18
498;BME280;39559;48.630;9.162;2023-06-26T12:57:25;97391.59;;;31.33;42.90
498;BME280;39559;48.630;9.162;2023-06-26T13:01:04;97386.38;;;31.25;41.96
498;BME280;39559;48.630;9.162;2023-06-26T13:03:31;97392.59;;;31.32;41.99
498;BME280;39559;48.630;9.162;2023-06-26T13:05:58;97385.72;;;31.65;42.77
498;BME280;39559;48.630;9.162;2023-06-26T13:08:33;97385.41;;;31.39;42.02
498;BME280;39559;48.630;9.162;2023-06-26T13:10:59;97382.19;;;31.09;43.51
498;BME280;39559;48.630;9.162;2023-06-26T13:13:25;97383.25;;;30.80;44.33
498;BME280;39559;48.630;9.162;2023-06-26T13:15:51;97383.25;;;30.80;43.82
498;BME280;39559;48.630;9.162;2023-06-26T13:18:17;97397.44;;;31.09;43.99
498;BME280;39559;48.630;9.162;2023-06-26T13:20:42;97379.97;;;31.19;42.76
498;BME280;39559;48.630;9.162;2023-06-26T13:24:53;97383.84;;;31.10;43.27
498;BME280;39559;48.630;9.162;2023-06-26T13:27:19;97396.75;;;30.93;42.96
498;BME280;39559;48.630;9.162;2023-06-26T13:29:45;97392.06;;;30.74;44.42
498;BME280;39559;48.630;9.162;2023-06-26T13:32:11;97389.94;;;29.61;45.47
498;BME280;39559;48.630;9.162;2023-06-26T13:34:37;97399.13;;;30.32;45.44
498;BME280;39559;48.630;9.162;2023-06-26T13:37:03;97393.00;;;30.38;44.76
498;BME280;39559;48.630;9.162;2023-06-26T13:39:28;97390.09;;;29.90;45.50
498;BME280;39559;48.630;9.162;2023-06-26T13:41:54;97399.91;;;29.82;47.08
498;BME280;39559;48.630;9.162;2023-06-26T13:44:20;97396.63;;;30.09;44.45
498;BME280;39559;48.630;9.162;2023-06-26T13:48:48;97403.47;;;30.33;44.19
498;BME280;39559;48.630;9.162;2023-06-26T13:51:14;97399.47;;;30.43;44.31
498;BME280;39559;48.630;9.162;2023-06-26T13:53:39;97405.91;;;29.70;45.40
498;BME280;39559;48.630;9.162;2023-06-26T13:56:05;97388.31;;;29.97;44.11
498;BME280;39559;48.630;9.162;2023-06-26T13:58:31;97402.69;;;29.96;43.57
498;BME280;39559;48.630;9.162;2023-06-26T14:00:59;97388.69;;;29.94;43.50
498;BME280;39559;48.630;9.162;2023-06-26T14:03:26;97392.13;;;30.09;44.54
498;BME280;39559;48.630;9.162;2023-06-26T14:05:53;97392.63;;;29.98;43.43
498;BME280;39559;48.630;9.162;2023-06-26T14:08:19;97396.44;;;29.89;43.66
498;BME280;39559;48.630;9.162;2023-06-26T14:12:40;97400.91;;;29.30;44.27
498;BME280;39559;48.630;9.162;2023-06-26T14:15:08;97402.69;;;29.59;44.29
498;BME280;39559;48.630;9.162;2023-06-26T14:17:34;97402.25;;;30.14;43.94
498;BME280;39559;48.630;9.162;2023-06-26T14:20:00;97404.03;;;30.28;41.58
498;BME280;39559;48.630;9.162;2023-06-26T14:22:25;97401.19;;;30.08;40.99
498;BME280;39559;48.630;9.162;2023-06-26T14:24:51;97417.13;;;30.16;41.53
498;BME280;39559;48.630;9.162;2023-06-26T14:27:17;97415.56;;;30.29;41.45
498;BME280;39559;48.630;9.162;2023-06-26T14:29:42;97420.94;;;30.29;42.02
498;BME280;39559;48.630;9.162;2023-06-26T14:32:08;97421.59;;;30.09;39.72
498;BME280;39559;48.630;9.162;2023-06-26T14:36:30;97413.56;;;30.09;40.21